Date,TemperatureHighF,TemperatureAvgF,TemperatureLowF,DewpointHighF,DewpointAvgF,DewpointLowF,HumidityHigh,HumidityAvg,HumidityLow,PressureMaxIn,PressureMinIn,WindSpeedMaxMPH,WindSpeedAvgMPH,GustSpeedMaxMPH,PrecipitationSumIn
2013-8-1,65,61,58,57,55,53,85,80,72,30.11,30.05,5,1,11,0.00
2013-8-2,74,64,58,58,55,54,87,73,52,30.15,30.07,4,1,8,0.00
2013-8-3,83,67,54,61,57,51,93,72,41,30.10,29.94,5,1,10,0.00
2013-8-4,90,71,57,64,59,54,93,69,35,30.01,29.86,4,1,8,0.00
2013-8-5,92,73,57,64,58,54,89,63,32,29.99,29.86,3,1,7,0.00
2013-8-6,94,74,55,57,50,38,89,51,15,29.98,29.85,3,1,7,0.00
2013-8-7,82,68,59,58,54,51,82,63,39,30.02,29.92,5,1,8,0.00
2013-8-8,85,68,56,63,57,52,87,71,45,30.05,29.87,5,1,8,0.00
2013-8-9,85,71,61,63,59,56,85,67,44,29.92,29.80,4,1,9,0.00
2013-8-10,81,67,58,64,58,54,88,75,49,30.03,29.88,3,1,7,0.00
2013-8-11,76,64,57,61,57,53,88,79,58,30.07,29.97,4,1,6,0.00
2013-8-12,78,66,58,61,57,52,87,74,50,30.06,29.99,3,1,6,0.00
2013-8-13,86,68,50,60,53,48,92,65,28,30.10,29.90,3,1,6,0.00
2013-8-14,70,62,58,62,55,54,86,78,58,29.96,29.93,3,0,6,0.00
2013-8-15,79,72,66,67,64,60,84,76,63,29.94,29.91,2,0,5,0.00
2013-8-27,82,71,66,64,60,58,79,68,48,29.84,29.78,3,1,5,0.00
2013-8-28,81,69,60,64,61,57,94,77,53,29.89,29.83,3,0,6,0.03
2013-8-29,79,69,63,67,63,61,93,82,58,30.05,29.83,6,2,12,0.15
2013-8-30,83,71,62,63,60,57,91,71,41,30.13,30.01,4,1,6,0.00
2013-8-31,91,70,55,62,58,53,93,70,34,30.02,29.79,3,1,5,0.00